Time;durP1;ratioP1;P1;durP2;ratioP2;P2;SDS_P1;SDS_P2;PMS_P1;PMS_P2;Temp;Humidity;BMP_temperature;BMP_pressure;BME280_temperature;BME280_humidity;BME280_pressure;Samples;Min_cycle;Max_cycle;Signal;HPM_P1;HPM_P2
2021/05/03 00:00:25;;;;;;;10.23;8.93;;;6.70;95.00;;;;;;4993133;28;20706;-83
2021/05/03 00:02:52;;;;;;;10.37;9.37;;;6.80;94.70;;;;;;4998341;28;20330;-82
2021/05/03 00:05:21;;;;;;;9.87;8.87;;;6.70;94.60;;;;;;4997779;28;20628;-83
2021/05/03 00:07:47;;;;;;;10.20;9.10;;;6.80;94.40;;;;;;4987083;28;20204;-91
2021/05/03 00:10:14;;;;;;;9.30;8.13;;;6.80;94.00;;;;;;4994569;28;20219;-82
2021/05/03 00:12:41;;;;;;;9.13;8.23;;;6.80;93.90;;;;;;4997620;28;20668;-82
2021/05/03 00:15:10;;;;;;;8.60;7.70;;;6.70;94.10;;;;;;4999023;28;20206;-82
2021/05/03 00:17:36;;;;;;;8.40;7.30;;;6.90;94.00;;;;;;4994554;28;20216;-83
2021/05/03 00:20:04;;;;;;;8.27;7.47;;;6.90;93.50;;;;;;4988535;28;20231;-82
2021/05/03 00:22:30;;;;;;;8.37;7.57;;;6.90;93.30;;;;;;5000066;28;20562;-82
2021/05/03 00:25:13;;;;;;;10.80;7.90;;;6.90;93.40;;;;;;5002352;28;20607;-82
2021/05/03 00:27:40;;;;;;;7.37;6.67;;;6.80;93.40;;;;;;5000881;28;20191;-83
2021/05/03 00:30:07;;;;;;;8.40;7.60;;;6.90;93.70;;;;;;4994342;28;20228;-83
2021/05/03 00:32:33;;;;;;;7.90;7.10;;;6.90;93.70;;;;;;5000066;28;20200;-83
2021/05/03 00:34:59;;;;;;;8.57;7.27;;;6.90;93.40;;;;;;4999441;28;20227;-83
2021/05/03 00:37:26;;;;;;;8.43;7.63;;;7.00;92.80;;;;;;5003576;28;20199;-82
2021/05/03 00:39:53;;;;;;;7.60;6.90;;;6.90;93.00;;;;;;5003770;28;20282;-82
2021/05/03 00:42:19;;;;;;;7.90;7.20;;;6.90;93.40;;;;;;5003882;28;20200;-82
2021/05/03 00:44:45;;;;;;;9.20;8.03;;;6.80;93.70;;;;;;4997408;28;20244;-84
2021/05/03 00:47:13;;;;;;;8.60;7.50;;;6.80;94.40;;;;;;5003995;28;20207;-82
2021/05/03 00:49:40;;;;;;;7.30;6.60;;;6.70;94.10;;;;;;5003252;28;20231;-82
2021/05/03 00:52:06;;;;;;;8.30;7.50;;;6.70;94.30;;;;;;5002048;28;20496;-83
2021/05/03 00:54:33;;;;;;;8.77;7.23;;;6.80;94.60;;;;;;4993478;28;20236;-83
2021/05/03 00:56:59;;;;;;;8.17;7.43;;;6.80;95.10;;;;;;5001558;28;20210;-83
2021/05/03 00:59:26;;;;;;;7.87;7.17;;;6.90;95.10;;;;;;4995354;28;20279;-83
2021/05/03 01:01:52;;;;;;;7.43;6.73;;;6.90;94.30;;;;;;5001174;28;20196;-83
2021/05/03 01:04:18;;;;;;;7.80;7.10;;;6.90;94.40;;;;;;5000262;28;20224;-82
2021/05/03 01:06:45;;;;;;;8.30;7.50;;;6.90;94.10;;;;;;4996615;28;20216;-83
2021/05/03 01:09:11;;;;;;;7.77;7.07;;;6.90;94.10;;;;;;4995578;28;20236;-82
2021/05/03 01:11:38;;;;;;;8.03;7.33;;;6.90;94.10;;;;;;5001452;28;20207;-82
2021/05/03 01:14:05;;;;;;;8.33;7.47;;;6.90;94.70;;;;;;5000596;28;20231;-82
2021/05/03 01:16:31;;;;;;;7.93;7.20;;;6.90;94.60;;;;;;5001479;28;20207;-83
2021/05/03 01:18:57;;;;;;;7.67;6.83;;;6.80;94.30;;;;;;4997444;28;20239;-82
2021/05/03 01:21:25;;;;;;;7.30;6.60;;;6.80;94.10;;;;;;5001173;28;20200;-82
2021/05/03 01:23:52;;;;;;;8.10;7.33;;;6.80;94.10;;;;;;4999471;28;20243;-82
2021/05/03 01:26:19;;;;;;;8.60;7.70;;;6.70;94.30;;;;;;5000006;28;20208;-82
2021/05/03 01:31:36;;;;;;;8.60;7.80;;;6.40;95.90;;;;;;4998101;28;20215;-82
2021/05/03 01:34:06;;;;;;;9.60;8.33;;;6.40;95.60;;;;;;5001133;28;20238;-82
2021/05/03 01:36:37;;;;;;;9.60;8.60;;;6.30;96.30;;;;;;4999166;28;20208;-82
2021/05/03 01:39:06;;;;;;;9.97;8.97;;;6.30;95.70;;;;;;4993521;28;20257;-82
2021/05/03 01:41:32;;;;;;;9.67;8.73;;;6.30;95.30;;;;;;4984982;28;20648;-86
2021/05/03 01:43:58;;;;;;;10.37;9.30;;;6.20;95.30;;;;;;4987781;28;20232;-84
2021/05/03 01:46:26;;;;;;;9.73;8.77;;;6.10;96.00;;;;;;4996874;28;20311;-82
2021/05/03 01:48:52;;;;;;;10.87;9.40;;;6.00;95.90;;;;;;4993410;28;20235;-82
2021/05/03 01:51:19;;;;;;;9.97;8.97;;;6.00;96.40;;;;;;4983592;28;20201;-84
2021/05/03 01:53:46;;;;;;;10.60;9.50;;;6.00;96.40;;;;;;4986591;28;20239;-82
2021/05/03 01:56:16;;;;;;;10.17;9.17;;;6.00;96.70;;;;;;4995612;28;20200;-83
2021/05/03 01:58:42;;;;;;;11.73;10.10;;;6.00;97.20;;;;;;4987419;28;20243;-82
2021/05/03 02:01:22;;;;;;;12.27;10.23;;;6.00;97.10;;;;;;4994296;28;20202;-82
2021/05/03 02:03:48;;;;;;;11.20;10.10;;;6.00;97.40;;;;;;4987232;28;20589;-82
2021/05/03 02:06:14;;;;;;;10.77;9.67;;;6.10;97.30;;;;;;4995944;28;20543;-82
2021/05/03 02:08:41;;;;;;;13.10;11.23;;;6.10;97.00;;;;;;4994534;28;20271;-86
2021/05/03 02:11:08;;;;;;;12.07;10.87;;;6.10;97.40;;;;;;4988087;28;20203;-82
2021/05/03 02:13:35;;;;;;;11.47;10.27;;;6.00;97.70;;;;;;4994586;28;20282;-82
2021/05/03 02:16:02;;;;;;;12.23;10.93;;;6.00;97.90;;;;;;4998486;28;20200;-82
2021/05/03 02:18:28;;;;;;;12.10;10.80;;;6.10;97.60;;;;;;4994720;28;20315;-82
2021/05/03 02:20:55;;;;;;;11.67;10.47;;;6.20;97.40;;;;;;4989337;28;20218;-86
2021/05/03 02:23:21;;;;;;;12.70;10.67;;;6.30;97.20;;;;;;4988733;28;20192;-82
2021/05/03 02:25:47;;;;;;;12.50;10.63;;;6.30;96.80;;;;;;4997260;28;20196;-82
2021/05/03 02:28:15;;;;;;;11.10;10.00;;;6.30;96.80;;;;;;4994370;28;20220;-82
2021/05/03 02:30:41;;;;;;;11.37;10.17;;;6.30;96.90;;;;;;4989348;28;20599;-82
2021/05/03 02:33:08;;;;;;;11.60;10.40;;;6.30;97.00;;;;;;4988363;28;20261;-82
2021/05/03 02:35:35;;;;;;;12.10;10.60;;;6.40;97.20;;;;;;5005171;28;20242;-82
2021/05/03 02:38:02;;;;;;;12.87;11.30;;;6.40;97.30;;;;;;4986893;28;20200;-82
2021/05/03 02:40:30;;;;;;;12.20;10.90;;;6.40;97.10;;;;;;4988540;28;20238;-82
2021/05/03 02:43:00;;;;;;;13.20;10.70;;;6.40;96.90;;;;;;4995591;28;20200;-84
2021/05/03 02:45:28;;;;;;;12.43;11.10;;;6.40;96.90;;;;;;4999303;28;20246;-83
2021/05/03 02:47:55;;;;;;;12.20;11.00;;;6.40;97.10;;;;;;4987891;28;20670;-82
2021/05/03 02:50:23;;;;;;;11.73;10.53;;;6.40;97.40;;;;;;4992537;28;20583;-82
2021/05/03 02:52:50;;;;;;;13.10;11.10;;;6.30;97.70;;;;;;4977475;28;20216;-81
2021/05/03 02:55:17;;;;;;;12.07;10.87;;;6.40;97.30;;;;;;4992758;28;20227;-82
2021/05/03 02:57:45;;;;;;;12.10;10.90;;;6.30;97.30;;;;;;4989206;28;20652;-84
2021/05/03 03:00:15;;;;;;;14.00;11.00;;;6.40;97.60;;;;;;4997451;28;20227;-84
2021/05/03 03:02:42;;;;;;;11.83;10.63;;;6.40;97.40;;;;;;4997752;28;20196;-82
2021/05/03 03:05:10;;;;;;;11.87;10.67;;;6.40;97.20;;;;;;4996778;28;20234;-84
2021/05/03 03:07:36;;;;;;;11.57;10.43;;;6.40;97.10;;;;;;5003749;28;20195;-82
2021/05/03 03:10:03;;;;;;;12.33;11.00;;;6.30;97.50;;;;;;4985167;28;20232;-82
2021/05/03 03:12:34;;;;;;;12.63;10.50;;;6.40;97.00;;;;;;4995769;28;20200;-87
2021/05/03 03:15:01;;;;;;;12.83;10.70;;;6.40;96.90;;;;;;4982840;28;20232;-84
2021/05/03 03:18:04;;;;;;;11.70;10.50;;;6.40;97.40;;;;;;4985498;28;20197;-82
2021/05/03 03:20:31;;;;;;;10.90;9.80;;;6.50;97.10;;;;;;4993481;28;20232;-82
2021/05/03 03:22:57;;;;;;;11.43;10.33;;;6.50;96.90;;;;;;4995790;28;20219;-82
2021/05/03 03:25:23;;;;;;;11.77;10.57;;;6.40;96.60;;;;;;4996983;28;20216;-82
2021/05/03 03:27:50;;;;;;;12.03;10.70;;;6.50;96.90;;;;;;4997970;28;20686;-82
2021/05/03 03:30:17;;;;;;;11.23;10.13;;;6.50;97.10;;;;;;4995816;28;20223;-82
2021/05/03 03:32:45;;;;;;;11.63;10.43;;;6.50;97.10;;;;;;4995767;28;20196;-84
2021/05/03 03:35:14;;;;;;;11.57;10.40;;;6.60;96.80;;;;;;4997201;28;20234;-84
2021/05/03 03:37:41;;;;;;;11.57;10.40;;;6.50;96.60;;;;;;4992613;28;20196;-84
2021/05/03 03:40:09;;;;;;;11.37;10.27;;;6.40;97.00;;;;;;4995771;28;20244;-83
2021/05/03 03:42:35;;;;;;;11.60;10.40;;;6.30;97.00;;;;;;4994718;28;20204;-85
2021/05/03 03:45:02;;;;;;;10.50;9.40;;;6.30;96.70;;;;;;4994900;28;20215;-83
2021/05/03 03:47:28;;;;;;;10.63;9.63;;;6.30;96.40;;;;;;4994873;28;20278;-83
2021/05/03 03:49:54;;;;;;;10.30;9.20;;;6.20;96.50;;;;;;4982480;28;20247;-84
2021/05/03 03:52:23;;;;;;;10.67;9.57;;;6.20;96.20;;;;;;4984655;28;20237;-83
2021/05/03 03:54:50;;;;;;;10.40;9.30;;;6.20;96.30;;;;;;4994450;28;20240;-83
2021/05/03 03:57:33;;;;;;;10.43;9.20;;;6.20;95.90;;;;;;4979061;28;20189;-81
2021/05/03 03:59:59;;;;;;;10.40;8.90;;;6.10;96.00;;;;;;4998766;28;20219;-81
2021/05/03 04:02:27;;;;;;;10.53;9.27;;;6.10;95.90;;;;;;5001291;28;20528;-84
2021/05/03 04:05:05;;;;;;;10.20;9.20;;;6.10;95.30;;;;;;5001171;28;20246;-81
2021/05/03 04:07:36;;;;;;;11.97;10.17;;;6.00;95.80;;;;;;4988436;28;20291;-82
2021/05/03 04:10:11;;;;;;;11.30;9.93;;;5.90;96.50;;;;;;4992784;28;20635;-82
2021/05/03 04:13:05;;;;;;;10.70;9.60;;;6.00;96.60;;;;;;4990354;28;20199;-86
2021/05/03 04:21:05;;;;;;;12.97;10.40;;;5.90;96.50;;;;;;4998804;28;20223;-89
2021/05/03 04:23:49;;;;;;;11.80;10.57;;;5.80;96.80;;;;;;4991968;28;20199;-82
2021/05/03 04:26:16;;;;;;;11.30;9.47;;;5.70;97.10;;;;;;4999849;28;20188;-83
2021/05/03 04:28:44;;;;;;;11.33;9.80;;;5.80;97.00;;;;;;4992711;28;20232;-81
2021/05/03 04:31:10;;;;;;;13.23;10.00;;;5.90;96.50;;;;;;4997024;28;20216;-88
2021/05/03 04:33:37;;;;;;;14.40;10.27;;;5.90;96.10;;;;;;5006316;28;20259;-84
2021/05/03 04:36:04;;;;;;;10.93;9.83;;;6.00;96.40;;;;;;5006668;28;20214;-81
2021/05/03 04:38:30;;;;;;;10.83;9.73;;;5.90;96.40;;;;;;4996655;28;20270;-81
2021/05/03 04:40:57;;;;;;;11.07;9.87;;;6.00;95.90;;;;;;4998727;28;20222;-81
2021/05/03 04:43:24;;;;;;;11.93;10.23;;;6.00;95.80;;;;;;4997769;28;20873;-81
2021/05/03 04:45:50;;;;;;;10.77;9.67;;;6.00;95.80;;;;;;5000050;28;20215;-81
2021/05/03 04:48:16;;;;;;;10.57;9.40;;;6.00;96.00;;;;;;5002293;28;20599;-81
2021/05/03 04:50:43;;;;;;;10.27;9.17;;;6.00;96.10;;;;;;4999568;28;20199;-83
2021/05/03 04:53:09;;;;;;;10.37;9.10;;;6.20;95.90;;;;;;4997977;28;20283;-83
2021/05/03 04:55:36;;;;;;;10.60;9.50;;;6.30;95.40;;;;;;4999798;28;20695;-83
2021/05/03 04:58:03;;;;;;;9.83;8.83;;;6.40;95.40;;;;;;5002133;28;20187;-83
2021/05/03 05:00:29;;;;;;;9.43;8.53;;;6.50;95.10;;;;;;4985687;28;20236;-83
2021/05/03 05:02:56;;;;;;;9.63;8.63;;;6.60;94.60;;;;;;5000805;28;20550;-83
2021/05/03 05:05:22;;;;;;;10.53;9.43;;;6.60;94.70;;;;;;5000233;28;20204;-83
2021/05/03 05:07:48;;;;;;;10.30;9.30;;;6.70;94.50;;;;;;4999491;28;20215;-83
2021/05/03 05:10:15;;;;;;;9.37;8.47;;;6.80;94.30;;;;;;4997131;28;20246;-86
2021/05/03 05:12:41;;;;;;;10.20;9.13;;;6.90;94.50;;;;;;4998824;28;20208;-83
2021/05/03 05:15:09;;;;;;;10.40;8.53;;;7.00;93.50;;;;;;4994401;28;20243;-83
2021/05/03 05:17:37;;;;;;;7.97;7.17;;;7.10;93.30;;;;;;4994742;28;20207;-85
2021/05/03 05:20:04;;;;;;;8.93;7.87;;;7.10;92.40;;;;;;4992301;28;20227;-83
2021/05/03 05:22:31;;;;;;;9.40;8.40;;;7.00;92.60;;;;;;4986949;28;20196;-83
2021/05/03 05:25:00;;;;;;;9.33;8.33;;;7.00;92.90;;;;;;4994251;28;20267;-83
2021/05/03 05:27:26;;;;;;;9.07;8.13;;;7.10;92.80;;;;;;4992654;28;20196;-87
2021/05/03 05:29:52;;;;;;;9.30;8.27;;;7.30;92.10;;;;;;4989920;28;20233;-85
2021/05/03 05:32:19;;;;;;;9.53;7.97;;;7.60;91.90;;;;;;4987898;28;20207;-84
2021/05/03 05:34:46;;;;;;;10.50;8.83;;;7.70;91.00;;;;;;4988489;28;20290;-86
2021/05/03 05:37:12;;;;;;;9.73;8.47;;;7.70;90.90;;;;;;4993522;28;20200;-85
2021/05/03 05:39:39;;;;;;;9.27;8.37;;;7.80;90.20;;;;;;4990038;28;20243;-85
2021/05/03 05:42:06;;;;;;;9.20;8.30;;;7.80;90.40;;;;;;4994707;28;20203;-85
2021/05/03 05:44:32;;;;;;;13.87;8.97;;;8.00;90.40;;;;;;4976267;28;20224;-87
2021/05/03 05:46:59;;;;;;;8.73;7.90;;;8.30;90.90;;;;;;4996262;28;20208;-85
2021/05/03 05:49:27;;;;;;;8.27;7.37;;;8.90;90.10;;;;;;4992325;28;20238;-86
2021/05/03 05:51:53;;;;;;;9.00;8.10;;;9.20;82.30;;;;;;4989518;28;20554;-86
2021/05/03 05:54:20;;;;;;;9.43;7.60;;;9.20;82.50;;;;;;4996375;28;20224;-83
2021/05/03 05:56:57;;;;;;;8.68;7.78;;;8.90;83.70;;;;;;5003541;28;20210;-83
2021/05/03 05:59:38;;;;;;;8.23;7.43;;;8.50;84.50;;;;;;4979112;28;20238;-85
2021/05/03 06:02:04;;;;;;;16.25;8.55;;;8.50;87.00;;;;;;5002989;28;20530;-86
2021/05/03 06:04:32;;;;;;;9.27;7.75;;;8.50;86.40;;;;;;4999376;28;20325;-82
2021/05/03 06:07:19;;;;;;;14.48;8.00;;;8.60;84.70;;;;;;4986679;28;20207;-82
2021/05/03 06:13:23;;;;;;;10.07;8.35;;;8.60;88.00;;;;;;5000105;28;20167;-81
2021/05/03 06:19:12;;;;;;;9.75;7.78;;;8.70;82.60;;;;;;5001941;28;20231;-84
2021/05/03 06:21:49;;;;;;;8.40;7.50;;;8.70;83.90;;;;;;4989117;28;20203;-85
2021/05/03 06:24:15;;;;;;;9.50;8.30;;;8.80;82.90;;;;;;5008883;28;20223;-85
2021/05/03 06:26:42;;;;;;;8.95;7.90;;;8.90;82.90;;;;;;4995489;28;20238;-87
2021/05/03 06:29:09;;;;;;;12.43;8.63;;;9.00;82.00;;;;;;5007709;23;20220;-86
2021/05/03 06:39:01;;;;;;;10.57;7.85;;;9.20;80.70;;;;;;4985319;28;20260;-84
2021/05/03 06:41:31;;;;;;;13.80;9.15;;;9.40;80.00;;;;;;4982988;28;20632;-85
2021/05/03 06:43:58;;;;;;;11.77;8.85;;;9.80;80.10;;;;;;4984625;28;20214;-86
2021/05/03 06:46:37;;;;;;;9.77;8.25;;;9.80;79.10;;;;;;4981931;28;20648;-84
2021/05/03 06:59:45;;;;;;;11.23;9.27;;;10.00;73.00;;;;;;4982454;28;20229;-84
2021/05/03 07:02:13;;;;;;;12.60;8.65;;;10.10;73.00;;;;;;4996592;28;20211;-84
2021/05/03 07:04:39;;;;;;;9.77;7.97;;;10.40;73.40;;;;;;4983266;28;20215;-86
2021/05/03 07:07:06;;;;;;;14.07;9.10;;;10.70;67.80;;;;;;4984209;28;20208;-87
2021/05/03 07:09:33;;;;;;;11.75;8.52;;;10.70;67.00;;;;;;4985531;28;20246;-88
2021/05/03 07:12:14;;;;;;;10.32;8.52;;;10.60;66.10;;;;;;4984261;28;20204;-84
2021/05/03 07:18:13;;;;;;;16.17;8.52;;;11.00;64.30;;;;;;4986515;28;20167;-86
2021/05/03 07:20:40;;;;;;;9.90;7.93;;;11.30;62.50;;;;;;4985163;28;20563;-87
2021/05/03 07:23:40;;;;;;;12.82;8.43;;;11.50;60.00;;;;;;4990496;28;20272;-89
2021/05/03 07:26:30;;;;;;;9.13;7.63;;;11.30;57.90;;;;;;4988564;28;20212;-87
2021/05/03 07:28:57;;;;;;;8.85;7.95;;;11.70;57.90;;;;;;5216176;23;20232;-87
2021/05/03 07:34:46;;;;;;;11.18;7.22;;;11.40;57.20;;;;;;5005966;28;20271;-88
2021/05/03 07:37:25;;;;;;;10.20;7.82;;;11.30;58.30;;;;;;4998705;28;20212;-87
2021/05/03 07:39:53;;;;;;;8.35;7.45;;;11.70;55.50;;;;;;4989797;28;20242;-91
2021/05/03 07:45:42;;;;;;;11.25;7.88;;;11.30;54.80;;;;;;4999558;28;20229;-88
2021/05/03 07:48:09;;;;;;;8.07;7.20;;;11.70;55.50;;;;;;4990872;28;20268;-93
2021/05/03 07:51:03;;;;;;;7.85;7.05;;;11.80;55.30;;;;;;4987460;28;20256;-88
2021/05/03 07:53:29;;;;;;;8.15;7.35;;;11.90;53.00;;;;;;4983699;28;20192;-87
2021/05/03 07:55:56;;;;;;;8.45;6.93;;;11.90;52.00;;;;;;4996996;28;20207;-87
2021/05/03 07:58:22;;;;;;;7.60;6.90;;;12.10;50.60;;;;;;4982914;28;20204;-89
2021/05/03 08:00:50;;;;;;;8.43;7.03;;;12.40;48.90;;;;;;4981603;28;20200;-88
2021/05/03 08:03:17;;;;;;;8.15;6.97;;;12.60;48.30;;;;;;4987091;28;20200;-88
2021/05/03 08:05:43;;;;;;;8.40;6.88;;;13.00;45.40;;;;;;4983753;28;20211;-89
2021/05/03 08:08:11;;;;;;;7.35;6.53;;;13.10;46.30;;;;;;4985899;28;20212;-88
2021/05/03 08:10:37;;;;;;;6.90;6.20;;;13.00;44.40;;;;;;4982041;28;20231;-88
2021/05/03 08:13:04;;;;;;;7.30;6.60;;;12.90;41.40;;;;;;4987932;28;20319;-87
2021/05/03 08:15:30;;;;;;;7.32;6.53;;;12.80;42.00;;;;;;4985975;28;20234;-91
2021/05/03 08:17:57;;;;;;;9.27;6.50;;;12.40;44.90;;;;;;4989548;28;20200;-88
2021/05/03 08:20:23;;;;;;;9.75;6.35;;;12.00;46.80;;;;;;4986341;28;20232;-87
2021/05/03 08:22:50;;;;;;;7.63;6.30;;;11.90;47.20;;;;;;4990565;28;20231;-85
2021/05/03 08:25:17;;;;;;;7.18;6.47;;;11.80;46.30;;;;;;4996129;28;20256;-85
2021/05/03 08:38:04;;;;;;;8.30;6.25;;;11.00;47.70;;;;;;5905745;22;20231;-83
2021/05/03 08:40:32;;;;;;;7.82;5.85;;;11.10;50.70;;;;;;5023428;28;20226;-84
2021/05/03 08:43:01;;;;;;;9.35;6.35;;;11.40;48.10;;;;;;5021448;28;20195;-84
2021/05/03 08:49:16;;;;;;;8.27;6.22;;;11.60;46.50;;;;;;5006517;28;20219;-84
2021/05/03 08:52:14;;;;;;;7.25;5.50;;;11.20;50.30;;;;;;5005998;28;20204;-83
2021/05/03 08:58:04;;;;;;;6.82;6.20;;;10.30;55.60;;;;;;5026708;28;20219;-82
2021/05/03 09:00:33;;;;;;;7.60;6.40;;;10.10;61.20;;;;;;5041711;28;20219;-85
2021/05/03 09:03:01;;;;;;;8.25;6.70;;;10.50;62.90;;;;;;5026536;28;20631;-84
2021/05/03 09:05:27;;;;;;;7.22;6.50;;;11.20;60.60;;;;;;5026104;28;20213;-89
2021/05/03 09:07:54;;;;;;;6.95;5.78;;;12.60;59.10;;;;;;5022372;28;20203;-82
2021/05/03 09:10:22;;;;;;;6.70;5.50;;;15.40;51.70;;;;;;5023462;28;20262;-80
2021/05/03 09:12:53;;;;;;;6.55;5.95;;;18.40;35.30;;;;;;5022819;28;20206;-81
2021/05/03 09:15:24;;;;;;;6.30;5.32;;;19.80;31.90;;;;;;5011444;28;20200;-77
2021/05/03 09:17:52;;;;;;;5.65;5.15;;;20.50;26.60;;;;;;5009057;28;20230;-81
2021/05/03 09:20:21;;;;;;;5.68;5.18;;;20.70;26.60;;;;;;5010120;28;20229;-80
2021/05/03 09:22:49;;;;;;;5.95;4.78;;;21.90;26.10;;;;;;5004407;28;20221;-81
2021/05/03 09:25:20;;;;;;;6.40;4.93;;;22.20;23.50;;;;;;5012085;28;20598;-80
2021/05/03 09:27:48;;;;;;;5.03;4.53;;;23.00;21.30;;;;;;5004248;28;20236;-86
2021/05/03 09:30:30;;;;;;;4.35;4.05;;;23.00;20.30;;;;;;5005891;28;20230;-82
2021/05/03 09:33:20;;;;;;;7.03;4.40;;;22.40;20.80;;;;;;5003640;28;20207;-81
2021/05/03 09:35:49;;;;;;;8.15;4.55;;;21.00;22.20;;;;;;5002480;28;20303;-83
2021/05/03 09:38:34;;;;;;;14.48;4.55;;;19.00;22.90;;;;;;5007304;28;20223;-79
2021/05/03 09:41:21;;;;;;;6.28;4.40;;;18.10;26.50;;;;;;5012198;28;20230;-85
2021/05/03 09:43:49;;;;;;;8.15;4.32;;;16.60;29.20;;;;;;5005914;28;20234;-82
2021/05/03 09:46:41;;;;;;;5.00;4.50;;;16.20;28.90;;;;;;5018935;28;20199;-83
2021/05/03 09:52:31;;;;;;;8.55;4.55;;;15.60;28.30;;;;;;5016857;28;20638;-81
2021/05/03 09:54:57;;;;;;;8.60;4.70;;;15.80;30.60;;;;;;5021061;28;20290;-82
2021/05/03 09:57:25;;;;;;;5.28;4.75;;;17.30;29.80;;;;;;5009699;28;20273;-81
2021/05/03 09:59:54;;;;;;;5.68;4.45;;;17.10;29.30;;;;;;5013229;28;20222;-82
2021/05/03 10:02:22;;;;;;;6.78;4.65;;;16.80;29.40;;;;;;5016929;28;20497;-83
2021/05/03 10:04:52;;;;;;;5.25;4.43;;;16.50;29.10;;;;;;5017298;28;20298;-82
2021/05/03 10:07:21;;;;;;;5.85;4.63;;;15.50;29.90;;;;;;5012923;28;20203;-86
2021/05/03 10:09:56;;;;;;;9.52;4.72;;;14.50;33.20;;;;;;5010403;28;20230;-85
2021/05/03 10:12:23;;;;;;;4.30;3.90;;;13.80;35.40;;;;;;5010334;28;20192;-84
2021/05/03 10:14:54;;;;;;;8.70;4.30;;;13.70;34.50;;;;;;5009341;28;20219;-85
2021/05/03 10:17:21;;;;;;;4.20;3.15;;;13.90;35.40;;;;;;5010465;28;20289;-84
2021/05/03 10:19:50;;;;;;;7.70;4.30;;;15.30;32.00;;;;;;5017862;28;20238;-83
2021/05/03 10:22:32;;;;;;;5.70;3.72;;;16.40;29.00;;;;;;5014798;28;20210;-86
2021/05/03 10:25:03;;;;;;;4.88;3.80;;;17.30;26.80;;;;;;5022669;28;20281;-84
2021/05/03 10:27:40;;;;;;;4.57;3.88;;;17.40;27.40;;;;;;5014653;28;20207;-88
2021/05/03 10:30:09;;;;;;;6.80;4.00;;;16.80;26.40;;;;;;5017160;28;20195;-83
2021/05/03 10:32:41;;;;;;;8.93;4.10;;;17.10;27.60;;;;;;5007331;28;20202;-89
2021/05/03 10:35:23;;;;;;;10.20;4.22;;;18.50;23.50;;;;;;5008048;28;20690;-83
2021/05/03 10:37:50;;;;;;;7.90;4.15;;;19.10;22.90;;;;;;5007253;28;20257;-84
2021/05/03 10:40:48;;;;;;;14.55;4.20;;;18.40;21.10;;;;;;5008667;28;20785;-83
2021/05/03 10:43:28;;;;;;;6.85;3.70;;;17.30;22.80;;;;;;5016031;28;20194;-83
2021/05/03 10:49:19;;;;;;;8.93;5.22;;;15.90;28.60;;;;;;5016300;28;20303;-86
2021/05/03 10:51:52;;;;;;;6.30;4.93;;;15.30;29.50;;;;;;5004790;28;20294;-85
2021/05/03 10:54:48;;;;;;;7.22;5.32;;;14.40;32.40;;;;;;5005091;28;20713;-85
2021/05/03 10:57:35;;;;;;;7.32;4.97;;;14.40;32.80;;;;;;5012471;28;20199;-85
2021/05/03 11:04:00;;;;;;;6.50;5.18;;;14.10;34.50;;;;;;4992297;28;20200;-85
2021/05/03 11:07:14;;;;;;;6.75;5.07;;;13.80;34.90;;;;;;5006573;28;20199;-86
2021/05/03 11:09:58;;;;;;;7.20;5.22;;;14.30;36.20;;;;;;5018834;28;20266;-87
2021/05/03 11:12:32;;;;;;;5.32;4.68;;;14.50;33.80;;;;;;5030292;28;20203;-86
2021/05/03 11:15:21;;;;;;;5.30;4.82;;;14.20;34.40;;;;;;5006860;28;20227;-86
2021/05/03 11:18:24;;;;;;;5.90;5.03;;;14.20;34.70;;;;;;5009447;28;20196;-87
2021/05/03 11:24:29;;;;;;;7.03;4.93;;;13.60;37.40;;;;;;5019382;28;20690;-86
2021/05/03 11:33:13;;;;;;;7.15;5.18;;;14.10;35.10;;;;;;5842596;22;20230;-85
2021/05/03 11:35:54;;;;;;;5.88;4.90;;;14.20;35.30;;;;;;5018215;28;20231;-85
2021/05/03 11:38:26;;;;;;;6.63;5.03;;;14.50;34.70;;;;;;5016873;28;20204;-87
2021/05/03 11:41:02;;;;;;;7.20;5.03;;;14.60;32.50;;;;;;5010420;28;20223;-90
2021/05/03 11:47:03;;;;;;;7.68;5.32;;;14.10;32.30;;;;;;4955077;29;20193;-93
2021/05/03 11:50:07;;;;;;;5.30;4.80;;;13.30;34.90;;;;;;4945003;29;20293;-92
2021/05/03 11:52:36;;;;;;;8.70;5.60;;;12.90;37.50;;;;;;4941606;29;20220;-89
2021/05/03 11:58:38;;;;;;;5.78;4.93;;;12.90;38.30;;;;;;4946519;29;20265;-91
2021/05/03 12:04:37;;;;;;;5.55;4.60;;;13.90;35.60;;;;;;4939033;29;20330;-88
2021/05/03 12:07:29;;;;;;;6.07;4.72;;;13.80;35.10;;;;;;4944391;29;20206;-88
2021/05/03 12:10:24;;;;;;;6.32;4.35;;;13.50;35.60;;;;;;4948015;28;20229;-86
2021/05/03 12:12:53;;;;;;;6.28;4.53;;;13.30;35.70;;;;;;5015594;28;20206;-86
2021/05/03 12:15:21;;;;;;;9.07;4.63;;;13.30;36.20;;;;;;5021370;28;20207;-85
2021/05/03 12:17:48;;;;;;;7.22;4.63;;;13.50;35.00;;;;;;5012744;28;20245;-84
2021/05/03 12:23:54;;;;;;;6.10;4.55;;;14.00;34.90;;;;;;5024319;28;20194;-84
2021/05/03 12:26:59;;;;;;;6.88;4.75;;;13.80;34.50;;;;;;5027547;28;20203;-87
2021/05/03 12:29:27;;;;;;;5.03;4.40;;;13.70;32.50;;;;;;5014620;28;20251;-85
2021/05/03 12:31:58;;;;;;;4.80;4.25;;;13.50;34.30;;;;;;5025328;28;20211;-85
2021/05/03 12:34:26;;;;;;;5.47;4.70;;;13.30;35.70;;;;;;5010692;28;20274;-85
2021/05/03 12:40:15;;;;;;;4.18;3.70;;;13.80;35.20;;;;;;5028091;28;20245;-87
2021/05/03 12:42:45;;;;;;;4.38;3.53;;;13.90;33.40;;;;;;5043804;28;20213;-85
2021/05/03 12:45:36;;;;;;;5.80;4.07;;;14.30;33.60;;;;;;5036904;28;20224;-87
2021/05/03 12:51:30;;;;;;;3.50;3.20;;;14.70;29.40;;;;;;5010662;28;20282;-86
2021/05/03 12:54:05;;;;;;;3.97;3.40;;;14.60;27.50;;;;;;5029625;28;20666;-86
2021/05/03 12:56:55;;;;;;;5.28;3.30;;;14.50;30.90;;;;;;5022481;28;20552;-86
2021/05/03 13:53:29;;;;;;;3.85;2.92;;;14.40;27.30;;;;;;5899702;23;20235;-86
2021/05/03 13:55:57;;;;;;;2.58;2.30;;;14.20;27.10;;;;;;5025034;28;20692;-90
2021/05/03 13:58:23;;;;;;;2.80;2.60;;;14.40;27.30;;;;;;5025528;28;20203;-88
2021/05/03 14:18:07;;;;;;;3.67;3.33;;;14.40;27.30;;;;;;5022631;28;20619;-86
2021/05/03 14:20:33;;;;;;;4.72;3.30;;;14.10;27.00;;;;;;5023880;28;20219;-86
2021/05/03 14:22:59;;;;;;;3.90;3.20;;;13.90;29.00;;;;;;5024067;28;20199;-86
2021/05/03 14:25:37;;;;;;;4.75;3.38;;;13.90;26.90;;;;;;5023770;28;20256;-85
2021/05/03 14:34:15;;;;;;;3.65;3.35;;;13.70;29.20;;;;;;5003824;28;20270;-86
2021/05/03 14:40:03;;;;;;;3.63;3.28;;;13.90;26.90;;;;;;5004411;28;20271;-88
2021/05/03 14:42:30;;;;;;;3.65;2.80;;;14.00;27.10;;;;;;5002463;28;20210;-86
2021/05/03 14:44:57;;;;;;;5.93;3.35;;;14.10;27.10;;;;;;5003304;28;20204;-84
2021/05/03 15:03:26;;;;;;;5.20;3.47;;;14.00;27.00;;;;;;5003176;28;20231;-85
2021/05/03 15:05:57;;;;;;;3.45;3.13;;;13.90;29.00;;;;;;4982046;28;20204;-85
2021/05/03 15:08:24;;;;;;;5.18;3.45;;;13.80;29.50;;;;;;4985328;28;20211;-85
2021/05/03 15:14:33;;;;;;;3.47;3.17;;;13.30;26.90;;;;;;5004975;28;20219;-85
2021/05/03 15:17:19;;;;;;;6.65;3.30;;;13.20;31.20;;;;;;4986895;28;20197;-85
2021/05/03 15:23:13;;;;;;;4.70;3.10;;;13.30;31.20;;;;;;5003504;28;20168;-85
2021/05/03 15:25:50;;;;;;;3.80;3.33;;;13.70;29.30;;;;;;5002012;28;20228;-85
2021/05/03 15:28:32;;;;;;;4.82;3.40;;;14.00;27.60;;;;;;4995868;23;20238;-87
2021/05/03 15:31:05;;;;;;;4.78;3.17;;;14.20;27.10;;;;;;4956096;28;20278;-86
2021/05/03 15:34:19;;;;;;;4.10;3.17;;;14.10;27.80;;;;;;4980095;28;20223;-85
2021/05/03 15:36:45;;;;;;;4.25;2.65;;;14.30;27.20;;;;;;4987332;28;20204;-86
2021/05/03 15:42:37;;;;;;;4.55;2.83;;;13.80;26.80;;;;;;4946358;28;20208;-86
2021/05/03 15:45:04;;;;;;;5.20;2.55;;;13.80;26.80;;;;;;4985262;28;20197;-85
2021/05/03 15:47:35;;;;;;;2.83;2.63;;;13.80;27.60;;;;;;5002857;28;20239;-88
2021/05/03 15:50:01;;;;;;;4.28;2.78;;;14.00;27.00;;;;;;4979609;28;20196;-87
2021/05/03 15:52:27;;;;;;;3.80;3.00;;;14.00;27.00;;;;;;4985862;28;20216;-85
2021/05/03 15:58:25;;;;;;;4.05;2.55;;;13.80;26.80;;;;;;4981087;28;20192;-85
2021/05/03 16:08:08;;;;;;;3.85;2.50;;;14.00;27.00;;;;;;4964328;29;20201;-87
2021/05/03 16:10:35;;;;;;;5.53;3.00;;;14.00;27.00;;;;;;4979357;28;20236;-86
2021/05/03 16:13:02;;;;;;;6.63;2.90;;;13.70;28.30;;;;;;4984247;28;20201;-86
2021/05/03 16:15:31;;;;;;;3.28;2.42;;;13.40;27.90;;;;;;4984992;28;20231;-87
2021/05/03 16:18:19;;;;;;;2.78;2.50;;;13.30;29.50;;;;;;4985444;28;20277;-88
2021/05/03 16:24:33;;;;;;;2.65;2.45;;;13.20;28.70;;;;;;4985148;28;20224;-88
2021/05/03 16:32:50;;;;;;;3.38;3.08;;;13.20;28.70;;;;;;5750698;22;20233;-93
2021/05/03 16:35:16;;;;;;;3.65;2.50;;;13.00;30.10;;;;;;5015759;28;20230;-86
2021/05/03 16:37:44;;;;;;;3.22;2.80;;;12.90;29.90;;;;;;5007595;28;20215;-86
2021/05/03 16:40:14;;;;;;;3.78;2.70;;;12.90;30.50;;;;;;5002874;28;20304;-90
2021/05/03 16:42:41;;;;;;;3.28;2.50;;;13.00;30.90;;;;;;5002494;28;20557;-87
2021/05/03 16:46:02;;;;;;;4.60;2.78;;;13.10;31.50;;;;;;5003356;28;20547;-86
2021/05/03 16:48:29;;;;;;;3.75;2.70;;;13.10;30.30;;;;;;5002584;28;20544;-88
2021/05/03 16:50:56;;;;;;;3.35;2.50;;;12.90;30.20;;;;;;5003268;28;20188;-87
2021/05/03 17:00:27;;;;;;;3.22;2.92;;;12.70;32.20;;;;;;5003924;28;20220;-87
2021/05/03 17:03:18;;;;;;;4.45;2.58;;;12.70;31.50;;;;;;5003465;28;20243;-87